Date,TemperatureHighF,TemperatureAvgF,TemperatureLowF,DewpointHighF,DewpointAvgF,DewpointLowF,HumidityHigh,HumidityAvg,HumidityLow,PressureMaxIn,PressureMinIn,WindSpeedMaxMPH,WindSpeedAvgMPH,GustSpeedMaxMPH,PrecipitationSumIn
2013-1-7,30.9,21.4,13.1,15.8,11.8,8.1,81,67,49,30.40,30.35,0,0,0,0.00
2013-1-8,49.1,29.3,10.8,29.3,20.6,6.4,86,72,46,30.37,30.27,9,1,14,0.00
2013-1-9,45.0,27.3,16.2,34.4,21.3,11.5,88,79,49,30.39,30.02,8,0,13,0.00
2013-1-10,46.4,38.2,25.3,27.3,23.0,18.1,76,55,40,30.53,30.06,12,2,27,0.00
2013-1-11,39.9,30.8,20.5,31.5,23.9,15.7,86,76,57,30.53,30.20,3,0,5,0.11
2013-1-12,42.1,36.8,33.8,37.7,33.1,30.1,91,86,84,30.22,30.12,2,0,2,0.05
2013-1-13,49.5,43.5,35.6,45.4,39.8,31.5,91,87,84,30.15,30.00,5,1,9,0.01
2013-1-14,58.3,48.9,39.0,49.0,38.9,25.1,88,70,36,30.26,29.87,6,1,11,0.00
2013-1-15,41.5,35.1,28.2,26.3,23.1,20.0,76,62,49,30.32,30.22,5,0,9,0.00
2013-1-16,33.1,31.3,28.4,28.5,25.4,20.8,83,79,62,30.24,29.82,4,0,7,0.00
2013-1-17,42.3,33.6,25.5,31.3,22.6,11.0,84,65,45,30.09,29.83,10,1,14,0.21
2013-1-18,28.9,21.3,13.6,11.9,-4.3,-13.5,53,33,22,30.44,30.04,8,1,14,0.00
2013-1-19,47.3,33.5,18.9,26.8,18.2,0.1,76,54,38,30.35,29.88,9,1,18,0.05
2013-1-20,53.1,39.4,27.0,31.8,21.8,1.4,76,51,24,29.93,29.56,13,1,23,0.00
2013-1-21,29.5,23.3,19.0,14.6,5.7,-3.0,76,49,26,30.09,29.79,5,0,11,0.00
2013-1-22,24.4,18.0,9.1,14.7,-1.4,-14.5,77,45,22,30.08,29.75,7,0,18,0.00
2013-1-23,16.5,9.3,4.5,-4.5,-14.5,-20.7,50,33,23,30.14,30.06,8,0,18,0.00
2013-1-24,21.6,9.7,-0.4,-9.0,-16.1,-21.1,48,30,21,30.23,30.07,6,0,18,0.00
2013-1-25,24.4,14.8,7.0,6.6,-12.8,-21.5,67,28,21,30.31,30.05,3,0,8,0.00
2013-1-26,25.0,14.4,1.9,6.6,-4.8,-15.6,69,45,21,30.24,29.99,6,0,15,0.00
2013-1-27,34.0,18.5,7.7,1.2,-4.1,-8.0,56,38,21,30.46,30.24,5,0,14,0.00
2013-1-28,32.7,22.2,10.6,19.6,8.8,-2.4,76,58,26,30.44,30.00,1,0,3,0.00
2013-1-29,34.9,29.4,24.6,28.0,22.9,17.7,83,76,69,30.19,30.00,0,0,1,0.14
2013-1-30,59.0,47.4,32.2,53.8,43.3,27.6,91,85,82,30.14,29.44,8,0,17,0.13
2013-1-31,60.6,46.7,29.5,55.6,33.9,9.6,85,63,31,29.60,28.99,14,2,27,0.46
2013-2-1,34.0,27.0,20.5,17.1,4.0,-4.5,62,38,24,30.08,29.60,6,0,18,0.00
2013-2-2,33.1,23.4,15.6,10.2,0.7,-7.7,56,37,24,30.24,30.03,2,0,11,0.00
2013-2-3,27.9,23.3,15.3,16.9,13.5,8.2,77,66,55,30.05,29.72,0,0,4,0.00
2013-2-4,32.9,21.7,11.5,13.9,5.5,-3.5,77,51,26,29.94,29.72,11,0,16,0.00
2013-2-5,30.4,24.0,20.5,16.7,9.7,3.2,74,54,43,30.01,29.92,1,0,4,0.00
2013-2-6,41.0,28.6,19.6,23.5,12.1,-6.0,78,53,25,30.29,29.91,4,0,16,0.02
2013-2-7,32.2,23.1,12.0,4.7,-1.6,-26.6,62,35,22,30.50,30.29,2,0,7,0.00
2013-2-8,30.7,23.7,16.7,23.1,14.0,3.9,77,67,44,30.46,29.60,11,1,22,0.00
2013-2-9,23.7,18.3,13.6,13.4,5.9,-5.7,76,59,40,30.21,29.58,14,1,25,0.00
2013-2-10,43.7,17.3,-4.7,9.2,-2.8,-15.3,67,44,21,30.38,30.20,2,0,8,0.01
2013-2-11,43.9,29.4,5.7,39.4,23.3,-2.8,92,78,61,30.34,29.61,0,0,3,0.19
2013-2-12,45.1,38.0,30.6,37.4,25.8,20.2,90,62,47,29.89,29.62,7,0,18,0.01
2013-2-13,46.6,33.1,23.0,24.4,19.6,14.5,73,58,42,29.87,29.69,2,0,6,0.00
2013-2-14,49.5,32.9,21.9,21.9,17.7,14.0,76,56,31,29.98,29.71,2,0,8,0.00
2013-2-15,55.6,33.9,17.8,33.4,23.8,10.7,84,68,41,29.99,29.90,3,0,11,0.00
2013-2-16,39.6,33.5,27.1,29.2,23.4,12.9,85,67,46,29.94,29.70,6,0,11,0.02
2013-2-17,28.0,21.2,14.9,15.2,1.5,-10.1,70,44,26,29.72,29.43,11,1,23,0.00
2013-2-18,33.3,20.8,12.2,-0.9,-6.6,-9.6,41,29,21,30.16,29.72,9,0,18,0.00
2013-2-19,49.3,32.4,15.1,37.5,19.8,-2.4,90,61,41,30.17,29.59,4,0,13,0.18
2013-2-20,37.9,30.8,24.3,35.3,13.8,2.5,90,51,29,29.80,29.55,8,0,22,0.01
2013-2-21,34.9,26.8,22.8,10.8,8.2,3.6,55,45,33,30.21,29.78,8,0,21,0.00
2013-2-22,42.8,29.7,14.4,20.1,14.9,7.1,76,55,33,30.36,30.21,4,0,11,0.00
2013-2-23,38.1,32.7,26.2,27.8,24.4,17.8,85,72,61,30.32,29.89,2,0,5,0.00
2013-2-24,35.6,32.8,30.7,29.6,28.1,26.6,85,83,78,29.89,29.70,3,0,10,0.47
2013-2-25,43.5,30.5,22.5,34.3,25.1,18.1,86,81,65,30.22,29.89,0,0,3,0.28
2013-2-26,46.2,33.6,30.6,33.8,26.9,21.3,85,77,46,30.32,30.14,1,0,4,0.08
2013-2-27,41.7,36.8,32.4,36.8,31.7,25.6,87,82,68,30.14,29.59,10,0,18,1.06
2013-2-28,49.5,36.2,28.2,37.4,29.9,22.1,83,78,63,29.65,29.54,0,0,1,0.02
2013-3-1,34.0,32.9,31.3,29.1,28.3,26.7,84,83,82,29.54,29.54,0,0,0,0.00
2013-3-2,42.4,34.9,33.1,26.0,22.6,21.2,64,61,51,29.69,29.63,2,0,8,0.00
2013-3-3,44.1,34.3,30.7,29.4,23.1,19.3,77,64,50,29.66,29.57,2,0,8,0.00
2013-3-4,41.4,33.2,26.8,22.7,18.9,13.4,66,56,44,29.76,29.61,5,0,16,0.00
2013-3-5,48.9,35.7,28.8,27.2,22.3,17.5,74,59,44,30.07,29.76,2,0,10,0.00
2013-3-6,39.4,35.4,32.9,31.3,28.2,26.1,80,75,63,30.08,30.03,10,1,20,0.15
2013-3-7,35.2,31.8,29.3,26.8,24.9,23.0,80,75,66,30.05,29.98,8,1,20,0.05
2013-3-8,39.2,32.6,28.6,28.7,24.1,17.0,80,72,45,30.15,29.94,7,0,20,0.05
2013-3-9,54.1,37.7,21.2,27.3,17.8,13.0,78,48,21,30.35,30.14,3,0,15,0.06
2013-3-10,54.7,33.4,14.9,31.1,22.2,8.4,84,65,37,30.40,30.29,0,0,1,0.00
2013-3-11,56.7,42.0,34.2,36.1,31.1,26.4,84,66,42,30.32,30.14,2,0,9,0.00
2013-3-12,56.1,46.3,35.4,48.5,40.8,29.7,87,81,69,30.14,29.72,2,0,12,0.40
2013-3-13,53.8,41.7,26.6,41.3,26.6,-39.4,84,58,28,29.80,29.72,3,0,18,0.00
2013-3-14,38.7,29.6,22.1,22.8,9.3,-2.9,71,43,28,29.85,29.73,7,0,18,0.00
2013-3-15,44.4,30.3,18.3,25.3,10.1,-1.4,75,45,21,29.88,29.65,4,0,15,0.00
2013-3-16,43.2,33.5,25.9,24.5,10.4,0.9,73,40,22,29.87,29.69,2,0,8,0.00
2013-3-17,39.7,29.1,18.1,15.1,6.1,-2.4,74,40,21,30.30,29.86,6,0,14,0.00
2013-3-18,43.9,27.5,13.5,22.3,3.4,-7.7,76,38,21,30.45,30.20,3,0,8,0.00
2013-3-19,34.7,31.1,27.3,29.2,25.3,20.0,82,79,71,30.20,29.62,5,0,11,0.27
2013-3-20,43.2,30.7,21.9,23.7,16.2,9.2,81,56,33,29.81,29.70,4,0,17,0.18
2013-3-21,41.4,27.8,15.8,24.4,15.8,5.0,79,63,27,29.83,29.62,0,0,2,0.01
2013-3-22,46.4,32.5,25.0,20.0,14.6,9.0,57,48,28,29.76,29.62,4,0,15,0.00
2013-3-23,45.9,34.6,25.9,21.3,16.2,11.4,67,48,30,29.82,29.68,8,0,17,0.00
2013-3-24,51.6,37.3,28.6,22.2,18.9,14.2,73,49,28,29.83,29.73,4,0,17,0.00
2013-3-25,44.8,35.4,26.6,30.2,24.3,18.2,74,64,55,29.77,29.51,7,0,15,0.00
2013-3-26,53.1,39.9,31.8,28.6,21.7,14.0,62,49,27,29.80,29.54,4,0,10,0.00
2013-3-27,55.8,39.4,21.6,28.7,20.3,14.6,77,50,24,29.88,29.76,5,0,18,0.00
2013-3-28,53.1,42.3,34.2,32.8,28.8,23.4,79,60,36,30.03,29.88,4,0,8,0.01
2013-3-29,61.7,44.0,26.4,37.7,27.1,19.8,85,55,26,30.07,29.98,2,0,9,0.00
2013-3-30,61.3,45.1,29.7,30.9,22.1,13.5,71,45,20,30.11,30.01,5,0,14,0.00
2013-3-31,61.0,42.7,22.6,39.9,25.5,16.8,88,56,23,30.12,29.72,8,0,15,0.07
2013-4-1,64.8,45.9,33.8,46.2,34.5,4.4,94,68,25,29.81,29.53,11,0,21,0.09
2013-4-2,43.7,33.8,27.7,18.2,11.5,2.1,58,40,23,29.96,29.81,12,0,19,0.00
2013-4-3,49.6,36.1,28.6,16.7,11.4,4.6,54,38,21,30.18,29.95,11,0,28,0.00
2013-4-4,61.2,41.4,25.9,27.8,16.7,7.4,67,40,20,30.31,30.06,3,0,10,0.00
2013-4-5,66.2,47.9,34.7,31.8,24.1,15.2,74,44,18,30.06,29.66,6,0,20,0.00
2013-4-6,51.1,37.2,25.7,27.8,10.9,0.0,66,36,20,30.34,29.91,8,0,18,0.00
2013-4-7,59.2,41.3,21.9,40.3,26.4,11.3,82,58,23,30.34,30.01,8,0,21,0.00
2013-4-8,74.8,53.3,37.0,43.4,39.2,30.3,98,64,24,30.09,29.96,3,0,8,0.00
2013-4-9,74.5,57.2,45.0,53.4,44.2,39.2,97,65,35,30.09,29.87,7,0,14,0.05
2013-4-10,70.5,54.8,44.1,52.1,47.0,43.4,98,77,49,30.03,29.86,1,0,3,0.17
2013-4-11,60.8,48.3,38.5,47.2,38.7,25.3,99,72,37,30.15,29.84,1,0,6,0.05
2013-4-12,39.2,37.1,36.0,36.4,34.2,31.9,95,89,76,30.16,29.79,7,0,16,0.59
2013-4-13,58.1,43.8,34.2,40.6,34.9,31.8,93,73,44,29.94,29.76,3,0,8,0.07
2013-4-14,57.4,43.7,31.8,45.5,31.3,22.7,96,64,32,30.23,29.92,6,0,13,0.00
2013-4-15,66.0,44.2,25.9,37.4,30.1,22.1,91,62,28,30.40,30.23,2,0,9,0.00
2013-4-16,69.3,51.0,31.8,50.7,41.4,30.1,99,72,44,30.40,30.09,8,0,18,0.00
2013-4-17,71.1,58.7,43.0,52.9,35.4,21.6,92,48,17,30.36,30.08,6,0,12,0.00
2013-4-18,68.0,50.6,32.7,45.2,33.6,27.8,87,56,31,30.42,30.15,4,0,11,0.00
2013-4-19,77.9,62.5,52.2,62.8,57.3,45.2,98,84,58,30.15,29.68,7,0,18,0.00
2013-4-20,64.6,53.6,41.9,62.0,39.9,22.3,96,64,32,30.25,29.63,5,0,15,0.39
2013-4-21,60.3,43.2,33.4,30.4,21.2,14.5,82,44,21,30.67,30.25,10,0,16,0.00
2013-4-22,56.1,41.6,27.7,36.1,29.3,20.9,96,65,31,30.73,30.58,7,0,14,0.00
2013-4-23,41.4,39.1,36.9,40.3,36.5,29.4,98,91,74,30.58,30.11,5,0,10,0.02
2013-4-24,80.8,56.2,39.7,50.5,43.4,34.3,98,69,22,30.11,29.82,7,0,13,0.01
2013-4-25,70.0,54.0,38.1,51.9,35.4,19.6,94,55,20,30.29,29.86,4,0,14,0.01
2013-4-26,68.5,48.2,29.8,41.0,34.2,26.6,95,62,31,30.43,30.29,2,0,8,0.00
2013-4-27,72.1,50.6,30.6,48.9,35.1,28.3,99,62,21,30.43,30.29,1,0,9,0.00
2013-4-28,77.9,54.4,33.1,48.3,34.3,27.1,99,55,21,30.35,30.22,3,0,12,0.00
2013-4-29,75.0,57.0,42.3,47.9,36.4,22.6,94,51,23,30.29,30.20,97,0,99,0.00
2013-4-30,79.3,58.1,42.1,39.5,28.7,18.2,74,38,14,30.38,30.27,1,0,4,0.00
2013-5-1,78.1,55.4,32.7,45.7,34.4,23.8,98,52,21,30.49,30.38,2,0,6,0.00
2013-5-2,84.7,57.9,38.5,53.5,40.1,34.3,99,60,21,30.51,30.33,6,0,16,0.00
2013-5-3,68.0,51.4,37.8,47.1,41.2,36.5,96,71,45,30.53,30.40,4,0,9,0.00
2013-5-4,69.3,51.0,34.9,53.4,38.1,24.4,99,67,29,30.40,30.30,3,0,13,0.00
2013-5-5,71.6,49.4,30.9,46.5,38.3,30.3,99,70,36,30.34,30.24,2,0,7,0.00
2013-5-6,82.0,57.1,35.1,51.6,43.9,34.4,99,68,26,30.29,30.14,1,0,9,0.00
2013-5-7,85.8,62.9,40.1,59.8,51.0,39.8,99,70,35,30.20,30.11,2,0,9,0.00
2013-5-8,73.9,61.3,50.2,65.3,58.1,49.7,99,90,66,30.22,30.06,4,0,13,0.66
2013-5-9,74.1,60.9,55.2,65.4,58.7,54.4,99,93,62,30.07,29.90,0,0,1,0.22
2013-5-10,87.4,67.7,50.5,63.2,54.9,49.6,99,68,34,29.98,29.92,1,0,6,0.00
2013-5-11,70.3,63.1,57.6,62.1,58.8,54.0,96,86,72,29.95,29.72,5,0,13,0.09
2013-5-12,77.9,60.8,46.0,60.1,50.7,32.1,96,72,41,29.85,29.60,5,0,18,0.14
2013-5-13,63.5,49.8,36.7,36.9,31.0,24.3,87,50,27,30.05,29.85,4,0,11,0.01
2013-5-14,60.3,48.8,36.7,37.7,31.4,25.0,89,53,31,30.07,30.00,2,0,7,0.00
2013-5-15,69.8,50.9,30.4,52.6,41.2,29.6,99,74,33,30.08,29.70,3,0,10,0.04
2013-5-16,84.2,67.8,50.5,52.3,43.0,32.1,96,47,18,29.83,29.67,4,0,14,0.00
2013-5-17,74.8,58.9,43.5,46.7,41.2,32.9,95,56,26,30.25,29.83,3,0,14,0.00
2013-5-18,77.0,59.1,38.5,54.2,43.6,34.0,99,63,27,30.32,30.24,1,0,6,0.00
2013-5-19,76.6,58.5,43.2,57.7,50.5,42.6,99,78,45,30.35,30.22,1,0,5,0.07
2013-5-20,86.5,65.3,55.4,65.8,59.9,54.8,99,85,49,30.23,29.95,2,0,9,0.01
2013-5-21,93.4,67.6,50.9,70.4,60.2,50.4,99,81,43,30.05,29.86,4,0,11,0.31
2013-5-22,85.5,62.3,50.4,70.1,57.6,49.7,99,86,60,30.10,29.88,2,0,8,0.14
2013-5-23,74.3,65.8,56.1,68.6,62.9,54.5,99,91,81,29.95,29.83,2,0,8,0.14
2013-5-24,76.3,62.9,48.2,66.8,59.2,47.4,98,88,66,29.87,29.68,4,0,10,0.39
2013-5-25,52.2,46.9,41.4,49.8,45.4,37.7,99,94,86,29.87,29.75,7,0,14,0.35
2013-5-26,61.7,49.2,39.6,43.5,39.2,36.1,94,70,45,30.13,29.75,8,0,17,0.02
2013-5-27,77.0,56.8,35.2,48.0,39.0,28.8,99,59,21,30.19,30.09,4,0,12,0.00
2013-5-28,81.9,61.1,38.8,54.9,45.4,37.7,99,63,24,30.25,30.17,0,0,4,0.00
2013-5-29,83.8,65.1,57.6,68.6,61.2,54.9,99,88,57,30.21,30.01,3,0,8,1.00
2013-5-30,91.8,75.0,58.6,72.0,65.5,58.4,99,76,46,30.13,30.05,4,0,11,0.00
2013-5-31,100.8,80.0,60.1,76.1,65.2,59.8,99,66,36,30.14,29.99,1,0,4,0.00
2013-6-1,96.6,79.0,60.4,71.3,65.8,59.9,99,68,40,30.03,29.91,2,0,6,0.00
2013-6-2,93.4,77.7,66.9,69.3,66.1,63.3,91,70,43,29.94,29.78,4,0,12,0.00
2013-6-3,87.3,70.4,61.0,70.3,62.7,43.6,96,79,53,29.89,29.80,4,0,10,0.09
2013-6-4,76.5,62.5,50.2,50.8,44.6,39.1,93,54,35,30.13,29.88,9,0,17,0.00
2013-6-5,81.7,63.0,44.8,57.8,48.1,40.0,99,64,30,30.22,30.12,1,0,4,0.00
2013-6-6,79.2,63.4,49.5,57.5,51.2,47.6,97,68,42,30.21,30.13,2,0,8,0.02
2013-6-7,59.9,55.8,52.7,58.3,54.8,52.2,98,96,94,30.14,29.83,3,0,8,1.80
2013-6-8,82.2,63.1,52.2,65.6,57.0,51.6,98,83,54,30.05,29.65,4,0,11,1.00
2013-6-9,85.1,67.0,51.6,66.6,55.1,51.3,99,70,42,30.21,30.04,3,0,10,0.00
2013-6-10,75.6,61.7,50.9,63.1,57.7,50.6,99,88,55,30.22,30.02,1,0,5,0.86
2013-6-11,66.0,59.4,56.5,59.8,57.3,55.5,99,93,79,30.02,29.59,2,0,5,1.17
2013-6-12,73.9,62.9,53.6,58.9,54.6,51.0,99,76,52,29.86,29.59,8,0,21,0.00
2013-6-13,64.4,55.3,47.1,60.4,53.1,46.7,99,93,78,29.85,29.67,2,0,7,1.07
2013-6-14,77.5,59.6,51.4,58.6,53.2,50.6,99,82,48,29.81,29.65,4,0,8,1.00
2013-6-15,84.6,66.4,51.6,57.3,49.6,40.1,98,61,25,29.99,29.81,2,0,10,0.00
2013-6-16,79.9,65.6,46.9,63.8,55.8,46.7,99,74,42,29.99,29.75,2,0,8,0.00
2013-6-17,90.7,70.6,55.4,68.5,60.1,55.1,99,74,38,29.95,29.82,9,0,21,0.17
2013-6-18,82.9,63.9,57.2,68.0,60.6,56.7,99,90,58,29.97,29.89,4,0,11,1.13
2013-6-19,79.7,64.2,50.7,57.9,52.8,42.8,99,71,36,30.19,29.93,1,0,8,0.21
2013-6-20,85.5,67.0,46.4,61.1,52.3,44.4,99,65,28,30.29,30.19,3,0,4,0.01
2013-6-21,90.1,71.8,54.3,65.5,59.7,52.6,97,69,42,30.29,30.23,2,0,7,0.00
2013-6-22,90.1,73.1,58.1,66.3,60.2,56.2,97,67,38,30.27,30.16,2,0,9,0.00
2013-6-23,93.9,77.8,61.2,72.5,65.3,56.3,86,67,48,30.21,30.05,2,0,7,0.00
2013-6-24,97.2,80.2,68.7,73.4,69.5,65.1,97,73,46,30.08,29.93,9,0,18,0.12
2013-6-25,97.7,79.2,65.8,73.2,68.5,64.3,99,74,43,29.99,29.79,3,0,8,0.07
2013-6-26,90.9,76.9,67.1,75.9,68.6,65.3,99,78,53,29.90,29.78,2,0,9,0.01
2013-6-27,72.9,68.1,64.2,68.9,65.6,63.1,99,92,80,29.89,29.78,1,0,4,0.04
2013-6-28,87.3,71.9,63.1,76.0,67.7,62.3,99,88,66,29.78,29.53,2,0,10,0.39
2013-6-29,89.8,76.2,70.0,72.0,68.5,65.7,95,79,52,29.77,29.55,3,0,8,0.00
2013-6-30,92.7,77.6,68.0,72.8,69.2,66.5,97,77,49,29.98,29.77,1,0,6,0.00
2013-7-1,86.7,76.1,71.6,75.3,71.5,69.0,96,86,69,30.12,29.98,2,0,8,0.02
2013-7-2,88.7,77.4,69.1,75.7,71.1,64.4,93,82,62,30.23,30.11,1,0,4,0.00
2013-7-3,92.8,76.8,64.6,74.3,69.1,62.3,95,79,53,30.25,30.19,2,0,7,0.00
2013-7-4,96.1,83.0,71.1,75.5,72.3,69.7,97,72,49,30.25,30.15,2,0,7,0.00
2013-7-5,99.3,84.8,73.0,75.1,72.3,69.2,93,69,45,30.21,30.09,2,0,7,0.00
2013-7-6,94.8,82.6,71.4,76.6,71.1,67.4,97,70,47,30.14,30.03,4,0,12,0.00
2013-7-7,98.6,79.4,67.6,77.5,70.9,66.6,98,79,45,30.08,29.96,1,0,5,0.11
2013-7-8,95.9,79.5,69.4,78.6,70.0,64.9,99,76,44,30.11,29.96,2,0,8,0.00
2013-7-9,78.3,71.0,66.4,70.9,67.1,65.0,97,88,77,30.14,30.08,0,0,3,0.00
2013-7-10,91.0,75.9,67.6,75.9,70.9,65.4,97,86,59,30.11,29.84,2,0,8,0.15
2013-7-11,88.2,76.4,68.4,76.2,71.8,67.2,99,87,63,29.98,29.82,0,0,2,0.11
2013-7-12,78.6,71.4,64.6,67.8,61.9,57.9,96,73,62,30.23,29.97,3,0,8,0.00
2013-7-13,77.5,70.0,63.9,73.3,66.3,59.3,96,88,80,30.34,30.23,0,0,2,0.05
2013-7-14,94.1,80.6,69.6,77.5,71.5,67.2,98,76,49,30.34,30.24,2,0,9,0.00
2013-7-15,96.6,81.7,69.4,77.6,70.9,66.1,98,73,42,30.26,30.15,2,0,6,0.00
2013-7-16,95.9,81.4,65.5,75.4,68.5,63.5,99,69,40,30.22,30.15,3,0,10,0.00
2013-7-17,98.8,83.5,68.4,76.5,70.5,65.6,98,69,39,30.22,30.06,1,0,3,0.00
2013-7-18,101.8,85.5,73.6,76.1,72.4,67.8,94,68,39,30.06,29.97,3,0,5,0.00
2013-7-19,99.9,85.8,72.5,77.8,73.9,69.8,98,71,43,30.00,29.78,3,0,11,0.00
2013-7-20,97.9,83.0,68.9,80.3,73.4,66.1,96,74,45,29.87,29.72,6,0,11,0.22
2013-7-21,93.0,76.7,66.0,69.1,65.5,60.5,96,71,42,30.03,29.87,1,0,2,0.00
2013-7-22,90.0,74.2,64.2,72.0,67.4,63.3,99,81,48,30.05,29.92,52,0,6,0.00
2013-7-23,90.7,73.9,69.3,79.8,71.4,67.3,98,92,66,29.92,29.57,2,0,10,1.81
2013-7-24,88.7,76.5,66.9,78.5,66.7,56.8,99,74,46,30.00,29.62,4,0,8,0.01
2013-7-25,66.7,60.1,58.3,58.9,54.6,48.2,97,83,67,30.14,29.99,2,0,8,0.17
2013-7-26,76.5,65.0,59.7,67.9,61.8,58.3,98,90,72,30.09,29.98,2,0,8,0.41
2013-7-27,90.3,70.7,55.9,68.9,62.8,55.5,99,80,44,30.10,30.03,0,0,1,0.00
2013-7-28,92.1,73.8,60.8,71.1,66.3,25.8,99,80,46,30.06,29.99,0,0,2,0.00
2013-7-29,90.0,74.5,64.0,74.6,68.5,63.2,99,84,51,30.09,30.00,2,0,7,0.11
2013-7-30,86.4,70.8,57.9,64.4,59.3,54.5,98,71,43,30.15,30.08,2,0,8,0.00
2013-7-31,90.0,70.9,56.8,66.5,59.8,51.9,99,73,38,30.18,30.08,1,0,4,0.00
2013-8-1,83.5,68.8,57.7,70.5,63.3,57.5,99,84,58,30.09,29.91,1,0,6,0.08
2013-8-2,87.1,72.5,64.2,71.8,64.1,57.9,99,78,45,29.93,29.84,4,0,11,0.59
2013-8-3,85.1,69.8,60.8,67.4,62.4,58.5,99,80,47,29.92,29.83,2,0,8,0.01
2013-8-4,84.6,67.6,54.5,65.3,56.7,52.5,99,71,40,29.94,29.82,4,0,11,0.00
2013-8-5,80.4,63.8,51.1,56.4,49.4,40.4,99,65,28,30.09,29.94,4,0,11,0.00
2013-8-6,88.0,65.5,46.9,63.5,52.6,46.5,99,69,33,30.19,30.08,0,0,2,0.00
2013-8-7,89.1,68.2,51.6,67.0,56.3,49.1,99,70,36,30.21,30.14,5,0,12,0.00
2013-8-8,85.1,72.3,64.9,73.0,67.5,59.3,98,85,66,30.16,30.04,0,0,2,0.11
2013-8-9,77.0,72.8,69.4,75.9,71.0,68.2,99,94,88,30.06,29.79,2,0,8,1.58
2013-8-10,87.3,72.4,57.9,70.5,61.5,52.8,99,72,37,30.06,29.84,3,0,10,0.00
2013-8-11,86.7,66.6,50.5,66.9,55.1,49.5,99,71,38,30.12,30.04,1,0,4,0.00
2013-8-12,89.6,70.2,55.9,69.3,58.9,53.0,99,73,36,30.07,29.96,1,0,4,0.00
2013-8-13,81.3,67.9,60.6,69.8,64.4,60.2,99,89,63,29.97,29.72,2,0,8,0.02
2013-8-14,77.0,66.2,55.9,66.3,54.2,48.3,99,67,46,30.02,29.71,5,0,16,0.00
2013-8-15,81.5,63.5,48.2,64.0,52.3,47.9,99,72,36,30.16,30.01,3,0,9,0.00
2013-8-16,86.4,65.1,48.9,63.1,54.5,48.7,99,74,36,30.24,30.15,2,0,7,0.00
2013-8-17,87.4,67.2,50.7,65.9,58.2,50.4,99,77,38,30.31,30.23,0,0,2,0.00
2013-8-18,83.7,67.5,55.2,66.9,60.8,54.2,99,81,47,30.31,30.13,0,0,0,0.00
2013-8-19,84.4,69.8,56.5,68.8,60.3,56.2,99,75,46,30.13,30.00,2,0,8,0.00
2013-8-20,92.3,72.3,58.3,69.6,61.8,57.3,99,74,39,30.14,30.03,1,0,4,0.00
2013-8-21,93.4,73.4,57.0,71.2,63.1,56.7,99,75,39,30.19,30.07,2,0,8,0.00
2013-8-22,86.7,71.3,59.0,74.7,66.7,58.7,99,87,61,30.09,29.87,1,0,4,0.00
2013-8-23,83.3,70.8,55.6,69.2,59.9,52.8,97,71,41,30.16,29.87,3,0,8,0.00
2013-8-24,82.9,64.3,49.6,59.2,49.9,39.4,99,65,24,30.38,30.16,2,0,8,0.00
2013-8-25,90.3,66.7,46.8,64.0,53.3,46.3,99,68,28,30.40,30.23,0,0,3,0.00
2013-8-26,82.0,70.8,62.1,67.4,62.5,57.6,93,76,57,30.23,29.92,2,0,8,0.02
2013-8-27,89.4,73.8,66.2,72.7,68.5,64.9,99,85,50,29.94,29.86,0,0,3,0.25
2013-8-28,92.3,74.1,61.5,76.1,66.0,60.9,99,79,45,30.00,29.88,3,0,5,0.00
2013-8-29,68.7,65.0,60.3,65.8,62.5,57.6,98,92,87,30.11,29.97,1,0,7,0.04
2013-8-30,90.7,70.6,60.3,69.7,63.9,58.5,97,81,46,30.07,29.87,2,0,7,0.00
2013-8-31,80.6,73.7,65.5,74.3,70.7,65.0,99,91,78,29.88,29.83,0,0,1,0.12
2013-9-1,83.1,72.5,68.4,78.0,70.9,67.2,99,95,82,29.92,29.83,1,0,11,0.66
2013-9-2,81.9,74.2,70.2,76.9,71.8,69.4,99,92,82,29.90,29.75,1,0,4,0.18
2013-9-3,83.3,71.0,60.4,74.5,67.2,57.3,99,89,65,29.87,29.74,0,0,3,0.04
2013-9-4,85.3,66.9,56.1,62.6,57.7,54.1,99,76,41,29.97,29.85,2,0,8,0.01
2013-9-5,74.3,61.0,45.9,64.8,53.7,39.8,99,81,35,30.18,29.90,4,0,8,0.02
2013-9-6,76.6,54.6,39.9,57.3,43.7,36.8,99,73,31,30.26,30.12,0,0,2,0.00
2013-9-7,86.5,61.7,43.7,59.1,50.5,43.2,99,72,29,30.13,29.90,1,0,6,0.00
2013-9-8,78.6,63.5,45.3,63.1,53.1,41.5,99,72,35,30.13,29.79,7,0,13,0.00
2013-9-9,74.7,55.4,38.5,55.1,45.6,38.0,99,74,40,30.25,30.13,0,0,3,0.00
2013-9-10,77.5,66.1,53.2,71.3,62.9,50.5,98,90,80,30.18,30.06,24,0,2,0.05
2013-9-11,99.3,79.3,65.3,77.6,71.2,65.0,99,79,43,30.11,29.99,5,0,13,0.00
2013-9-12,90.5,75.1,65.5,74.8,69.6,64.9,99,84,55,30.02,29.72,2,0,8,1.15
2013-9-13,84.7,68.6,59.2,69.0,63.9,54.2,99,86,55,29.81,29.61,2,0,7,0.04
2013-9-14,73.0,60.2,49.6,55.7,52.1,49.4,99,76,53,30.09,29.81,2,0,8,0.00
2013-9-15,77.5,57.4,43.3,58.8,49.0,42.1,99,78,35,30.19,30.08,2,0,7,0.00
2013-9-16,72.9,57.2,46.8,57.5,50.9,37.7,98,81,57,30.28,30.05,2,0,11,0.01
2013-9-17,68.0,49.2,36.3,46.6,39.0,33.7,99,71,36,30.44,30.27,3,0,9,0.00
2013-9-18,79.7,53.9,35.6,56.2,43.6,34.8,99,75,28,30.35,30.17,1,0,6,0.00
2013-9-19,86.9,59.1,42.1,58.2,49.8,41.8,99,77,33,30.18,30.06,0,0,1,0.00
2013-9-20,88.0,60.6,43.0,60.1,51.8,42.5,99,78,33,30.11,30.02,0,0,2,0.00
2013-9-21,77.0,63.3,47.5,65.7,58.8,47.0,99,86,63,30.06,29.75,3,0,9,0.00
2013-9-22,73.6,63.4,48.6,67.3,55.8,45.1,99,78,49,29.87,29.63,8,0,14,0.52
2013-9-23,67.8,52.7,41.7,47.0,42.4,38.9,98,70,45,30.04,29.87,4,0,12,0.00
2013-9-24,73.4,51.8,37.2,46.5,42.2,35.9,99,74,33,30.04,29.84,2,0,12,0.00
2013-9-25,74.8,54.3,39.0,55.3,47.2,38.8,99,79,46,30.01,29.89,3,0,8,0.00
2013-9-26,70.7,56.7,48.0,52.5,49.3,45.2,99,78,47,30.15,30.01,0,0,2,0.00
2013-9-27,66.7,56.7,45.3,54.4,51.6,44.3,99,84,63,30.29,30.14,2,0,5,0.00
2013-9-28,79.5,55.1,40.3,60.1,49.0,40.0,99,83,45,30.34,30.27,0,0,6,0.00
2013-9-29,73.8,52.0,39.9,56.8,45.1,38.9,99,82,34,30.29,30.13,0,0,2,0.00
2013-9-30,74.7,52.7,39.9,53.7,46.8,39.5,99,84,42,30.14,29.99,0,0,2,0.00
2013-10-1,81.7,57.5,39.6,62.3,49.7,39.3,99,80,37,29.99,29.88,2,0,9,0.00
2013-10-2,82.2,62.2,46.8,65.0,55.5,46.5,99,81,51,30.00,29.88,4,0,12,0.00
2013-10-3,80.8,58.2,43.5,63.2,49.5,43.0,99,79,29,30.12,30.00,0,0,2,0.00
2013-10-4,67.3,54.7,46.6,61.5,52.9,46.3,99,94,74,30.13,30.06,0,0,1,0.39
2013-10-5,71.6,62.4,56.1,61.7,58.8,55.8,99,89,70,30.15,30.07,0,0,0,0.04
2013-10-6,59.9,56.5,54.5,58.0,55.5,53.7,99,97,92,30.24,30.13,6,0,52,0.46
2013-10-7,79.3,64.5,55.4,71.2,61.6,54.2,99,91,71,30.15,29.83,8,0,14,0.22
2013-10-8,67.3,54.3,40.8,54.2,45.2,37.6,99,75,38,30.40,29.94,2,0,10,0.00
2013-10-9,64.4,48.2,37.0,47.4,42.4,36.1,99,83,51,30.48,30.38,2,0,7,0.00
2013-10-10,63.7,49.8,37.8,53.8,46.7,37.5,99,90,71,30.38,30.19,0,0,2,0.00
2013-10-11,72.7,55.5,45.3,57.4,49.7,44.5,99,83,49,30.19,30.10,2,0,5,0.00
2013-10-12,60.6,51.8,41.0,56.6,49.8,40.6,99,93,84,30.40,30.16,2,0,6,0.00
2013-10-13,61.3,51.0,37.2,50.4,46.6,36.2,99,86,65,30.45,30.38,2,0,6,0.00
2013-10-14,67.1,48.5,36.1,51.0,43.1,35.1,99,85,45,30.42,30.26,0,0,2,0.01
2013-10-15,68.9,55.6,44.4,56.6,48.9,43.8,98,80,51,30.28,30.18,0,0,2,0.00
2013-10-16,61.3,52.8,43.9,53.4,49.6,43.4,98,89,70,30.20,29.94,0,0,2,0.00
2013-10-17,75.4,59.0,47.5,61.3,54.0,46.9,98,85,57,29.94,29.75,2,0,6,0.02
2013-10-18,68.7,58.3,40.3,60.1,49.3,39.1,96,74,45,29.94,29.64,4,0,14,0.01
2013-10-19,66.9,50.2,34.0,53.4,40.6,32.4,99,74,40,29.99,29.77,2,0,4,0.00
2013-10-20,63.9,50.0,34.5,49.9,38.4,29.0,97,69,32,30.05,29.72,97,0,14,0.02
2013-10-21,69.6,50.3,32.4,47.2,37.9,30.8,98,68,34,30.13,30.01,2,0,6,0.00
2013-10-22,66.0,49.3,36.1,54.6,43.3,34.6,99,82,52,30.01,29.73,2,0,7,0.01
2013-10-23,52.5,42.7,32.7,42.3,34.0,30.2,98,74,46,29.82,29.59,2,0,6,0.00
2013-10-24,54.9,42.4,30.4,37.8,28.2,18.5,95,61,28,29.90,29.66,5,0,16,0.00
2013-10-25,50.0,37.8,26.2,37.7,26.4,21.9,93,66,42,30.17,29.90,3,0,10,0.00
2013-10-26,56.7,39.8,23.5,38.1,26.6,19.9,95,64,27,30.17,29.88,4,0,12,0.00
2013-10-27,55.8,44.6,31.5,39.4,32.5,25.5,90,64,35,30.08,29.81,4,0,11,0.02
2013-10-28,59.0,41.2,25.5,39.2,28.9,22.2,95,65,37,30.35,30.08,4,0,13,0.00
2013-10-29,51.8,34.1,24.3,27.5,19.5,10.7,86,59,24,30.45,30.35,1,0,5,0.00
2013-10-30,58.3,39.1,26.2,41.4,31.6,18.8,93,75,54,30.37,30.19,2,0,8,0.00
2013-10-31,61.9,46.9,28.8,58.7,44.1,27.3,98,90,76,30.24,29.80,3,0,9,0.05
2013-11-1,69.3,63.3,51.3,61.5,56.3,48.7,92,78,65,29.80,29.49,9,0,21,0.08
2013-11-2,68.4,52.0,40.1,51.2,42.8,37.3,97,75,35,29.75,29.61,2,0,6,0.01
2013-11-3,50.0,41.2,30.9,43.8,26.4,9.4,96,59,23,30.41,29.75,2,0,8,0.00
2013-11-4,44.6,30.9,20.7,15.7,12.3,7.2,79,48,25,30.70,30.42,1,0,5,0.00
2013-11-5,54.1,35.9,19.9,31.1,25.0,15.1,88,67,37,30.70,30.51,1,0,2,0.00
2013-11-6,62.8,48.6,34.2,47.5,39.4,29.1,91,72,45,30.52,30.05,3,0,10,0.00
2013-11-7,64.9,53.1,34.0,56.1,47.1,29.3,90,80,68,30.06,29.69,4,0,11,0.12
2013-11-8,49.3,36.9,25.2,34.6,24.5,17.2,86,62,40,30.10,29.84,6,0,13,0.00
2013-11-9,48.0,33.4,20.5,28.0,21.8,16.7,87,65,35,30.22,30.02,4,0,8,0.00
2013-11-10,56.1,44.0,36.5,44.1,33.8,26.4,96,69,46,30.02,29.76,4,0,13,0.04
2013-11-11,53.2,44.6,36.9,30.7,26.2,20.9,61,49,32,30.11,29.88,4,0,17,0.00
2013-11-12,49.5,35.1,24.4,37.7,22.2,9.1,86,60,45,30.19,29.89,4,0,13,0.06
2013-11-13,38.1,28.9,21.0,14.7,9.4,2.6,65,45,25,30.29,29.90,4,0,11,0.00
2013-11-14,54.1,37.6,27.0,21.4,16.6,10.9,59,44,25,30.16,30.05,2,0,11,0.00
2013-11-15,63.1,40.4,22.6,28.0,19.8,12.7,80,49,19,30.20,30.11,2,0,9,0.00
2013-11-16,63.1,41.6,27.3,34.1,27.0,19.7,86,61,23,30.32,30.18,1,0,3,0.00
2013-11-17,57.9,41.7,27.0,49.8,36.9,22.5,94,84,62,30.31,29.84,0,0,1,0.04
2013-11-18,67.5,55.6,42.8,59.3,43.6,30.1,95,67,37,29.84,29.54,5,0,13,0.28
2013-11-19,47.1,39.1,29.8,31.8,20.7,12.9,56,47,36,30.28,29.69,5,0,15,0.00
2013-11-20,43.3,29.8,17.6,14.2,9.8,2.0,70,45,22,30.62,30.28,4,0,8,0.00
2013-11-21,50.9,31.2,15.1,32.5,18.0,8.7,84,61,28,30.62,30.37,2,0,5,0.00
2013-11-22,48.9,43.8,40.3,45.5,40.0,32.3,94,87,70,30.37,29.82,0,0,0,0.09
2013-11-23,48.2,39.4,27.9,45.5,23.9,10.4,94,56,28,29.94,29.80,6,0,14,0.01
2013-11-24,27.9,22.8,18.9,15.1,-1.1,-10.9,69,36,21,30.20,29.82,11,0,24,0.00
2013-11-25,36.0,24.5,14.5,14.7,-1.5,-12.2,50,32,21,30.36,30.19,4,0,11,0.00
2013-11-26,41.0,34.4,30.2,30.7,18.9,9.9,89,55,36,30.31,30.02,2,0,8,0.15
2013-11-27,61.5,47.5,33.6,58.7,44.3,28.5,94,88,74,30.02,29.23,5,0,19,1.51
2013-11-28,36.7,29.1,20.3,29.0,11.5,-1.9,75,49,26,30.43,29.50,9,0,21,0.00
2013-11-29,34.9,26.0,16.2,15.1,6.4,-2.9,72,44,28,30.72,30.42,2,0,6,0.00
2013-11-30,36.0,22.0,8.8,16.2,7.8,-0.4,75,55,31,30.77,30.40,1,0,6,0.00
2013-12-1,35.2,32.2,27.7,31.6,27.0,16.2,89,81,62,30.40,30.01,0,0,0,0.08
2013-12-2,41.0,36.6,34.0,37.0,33.5,30.5,93,88,85,30.01,29.91,0,0,0,0.00
2013-12-3,50.7,36.7,25.5,37.6,30.0,21.1,90,78,48,29.96,29.84,2,0,5,0.00
2013-12-4,50.2,31.3,22.5,30.8,23.3,18.6,88,74,44,30.19,29.96,1,0,2,0.00
2013-12-5,55.4,38.5,26.4,52.6,34.6,22.0,92,86,75,30.19,29.91,2,0,8,0.02
2013-12-6,54.7,47.6,32.9,51.7,43.0,28.9,91,84,65,30.14,29.85,1,0,5,0.28
2013-12-7,40.8,31.8,22.6,31.6,24.6,17.2,87,75,51,30.45,30.06,7,0,11,0.17
2013-12-8,31.8,26.0,16.5,19.4,13.1,9.5,81,59,44,30.58,30.44,0,0,2,0.00
2013-12-9,34.2,29.7,24.6,30.7,24.4,12.0,89,81,52,30.47,29.89,1,0,4,0.01
2013-12-10,33.3,28.9,21.0,29.3,23.2,11.0,89,79,54,30.00,29.78,2,0,4,0.00
2013-12-11,31.5,23.0,14.2,17.7,13.2,7.7,81,66,54,30.21,30.00,2,0,8,0.00
2013-12-12,26.1,19.5,6.4,15.8,-0.3,-7.5,76,45,25,30.27,30.05,2,0,11,0.00
2013-12-13,30.2,20.6,13.6,15.2,6.0,0.2,71,53,41,30.36,29.98,4,0,11,0.00
2013-12-14,16.7,13.1,10.0,9.6,-1.9,-14.3,74,52,27,30.57,30.11,1,0,8,0.00
2013-12-15,32.5,22.1,14.2,22.8,15.4,7.7,81,75,64,30.11,29.44,2,0,8,0.00
2013-12-16,29.3,20.0,8.4,14.8,3.8,-2.8,79,51,29,30.18,29.73,4,0,11,0.00
2013-12-17,18.1,8.3,-4.9,10.3,-0.7,-14.6,74,66,51,30.25,29.93,0,0,3,0.00
2013-12-18,35.1,22.4,11.1,18.1,12.4,4.9,79,66,48,30.08,29.86,2,0,6,0.00
2013-12-19,45.0,29.1,10.0,23.6,17.7,2.8,80,64,43,30.10,29.95,8,0,18,0.08
2013-12-20,52.2,37.7,24.4,33.3,27.1,19.5,85,67,44,30.10,29.91,2,0,7,0.15
2013-12-21,55.9,42.2,29.7,44.2,35.6,25.9,91,78,62,29.96,29.86,2,0,8,0.00
2013-12-22,65.8,44.1,34.3,58.1,40.4,31.1,93,87,68,30.01,29.76,4,0,14,0.00
2013-12-23,39.4,34.3,32.2,36.9,31.5,29.8,94,89,78,30.07,29.95,1,0,4,0.58
2013-12-24,38.1,31.8,25.0,32.0,18.2,5.5,80,58,42,30.20,30.03,4,0,10,0.00
2013-12-25,25.2,17.8,11.3,5.2,-2.0,-9.2,64,42,27,30.51,30.20,2,0,9,0.00
2013-12-26,31.3,23.1,12.7,25.2,13.2,0.9,79,66,47,30.46,30.07,2,0,4,0.00
2013-12-27,37.9,22.6,9.5,20.9,12.4,1.7,79,66,44,30.27,30.18,2,0,8,0.05
2013-12-28,49.5,29.8,16.7,27.2,19.2,10.3,81,66,39,30.21,29.99,4,0,13,0.01
2013-12-29,42.8,32.8,23.0,35.6,27.8,18.1,90,82,63,30.02,29.41,4,0,11,1.11
2013-12-30,40.5,29.8,17.6,36.0,16.8,1.8,90,61,30,30.15,29.54,5,0,14,0.01
2013-12-31,27.0,18.8,10.8,11.8,3.6,-3.1,68,52,32,30.18,29.99,3,0,7,0.00
2014-1-1,29.7,20.3,11.3,9.2,1.6,-3.3,65,45,26,30.35,30.17,3,0,9,0.00
2014-1-2,20.1,11.7,0.9,11.9,2.1,-11.3,72,65,56,30.33,29.81,8,0,18,0.00